createdAt,value
2022-10-05T00:02:49.804Z,101107.44
2022-10-05T00:07:57.389Z,101109.16
2022-10-05T00:13:00.970Z,101098.19
2022-10-05T00:18:12.523Z,101096.47
2022-10-05T00:23:20.218Z,101092.31
2022-10-05T00:28:28.601Z,101086.88
2022-10-05T00:33:32.228Z,101080.91
2022-10-05T00:38:37.471Z,101080.72
2022-10-05T00:44:08.967Z,101080.25
2022-10-05T00:49:20.598Z,101080.25
2022-10-05T00:54:35.066Z,101080.50
2022-10-05T00:59:49.802Z,101080.25
2022-10-05T01:04:57.775Z,101071.06
2022-10-05T01:10:13.234Z,101073.03
2022-10-05T01:15:23.319Z,101086.09
2022-10-05T01:20:43.114Z,101083.72
2022-10-05T01:26:01.262Z,101086.00
2022-10-05T01:31:13.136Z,101090.22
2022-10-05T01:36:24.689Z,101093.00
2022-10-05T01:41:34.683Z,101096.53
2022-10-05T01:46:46.963Z,101098.38
2022-10-05T01:52:03.860Z,101099.44
2022-10-05T01:57:15.194Z,101102.00
2022-10-05T02:02:23.814Z,101093.53
2022-10-05T02:07:33.424Z,101100.06
2022-10-05T02:12:39.024Z,101098.00
2022-10-05T02:17:49.213Z,101094.50
2022-10-05T02:22:56.718Z,101106.63
2022-10-05T02:28:06.594Z,101107.13
2022-10-05T02:33:18.360Z,101109.41
2022-10-05T02:38:34.332Z,101118.69
2022-10-05T02:43:47.982Z,101123.91
2022-10-05T02:49:05.324Z,101133.75
2022-10-05T02:54:21.310Z,101140.06
2022-10-05T02:59:31.520Z,101132.97
2022-10-05T03:04:42.197Z,101136.50
2022-10-05T03:09:55.719Z,101135.63
2022-10-05T03:15:09.694Z,101152.50
2022-10-05T03:20:27.348Z,101143.41
2022-10-05T03:25:44.959Z,101149.06
2022-10-05T03:30:56.254Z,101151.50
2022-10-05T03:36:20.361Z,101152.81
2022-10-05T03:41:32.334Z,101153.22
2022-10-05T03:46:50.109Z,101161.28
2022-10-05T03:52:02.242Z,101171.03
2022-10-05T03:57:12.261Z,101170.31
2022-10-05T04:02:23.662Z,101165.97
2022-10-05T04:07:41.058Z,101173.16
2022-10-05T04:12:49.879Z,101161.72
2022-10-05T04:18:00.141Z,101166.66
2022-10-05T04:23:15.537Z,101175.25
2022-10-05T04:28:31.051Z,101165.81
2022-10-05T04:33:35.702Z,101164.53
2022-10-05T04:39:08.810Z,101168.13
2022-10-05T04:44:43.779Z,101165.28
2022-10-05T04:50:09.653Z,101171.97
2022-10-05T04:55:25.900Z,101190.69
2022-10-05T05:00:39.304Z,101193.78
2022-10-05T05:06:15.244Z,101192.31
2022-10-05T05:11:27.814Z,101191.66
2022-10-05T05:16:38.135Z,101199.09
2022-10-05T05:21:50.487Z,101194.81
2022-10-05T05:27:33.818Z,101198.53
2022-10-05T05:32:44.650Z,101197.91
2022-10-05T05:37:53.667Z,101200.88
2022-10-05T05:43:01.276Z,101201.16
2022-10-05T05:48:14.244Z,101190.03
2022-10-05T05:53:23.545Z,101180.69
2022-10-05T05:58:35.811Z,101184.38
2022-10-05T06:03:44.138Z,101186.66
2022-10-05T06:08:50.571Z,101185.84
2022-10-05T06:13:58.959Z,101193.75
2022-10-05T06:19:09.652Z,101192.97
2022-10-05T06:24:21.385Z,101187.22
2022-10-05T06:29:35.969Z,101198.63
2022-10-05T06:34:55.052Z,101195.28
2022-10-05T06:40:09.518Z,101191.88
2022-10-05T06:45:23.000Z,101197.44
2022-10-05T06:50:37.082Z,101191.50
2022-10-05T06:55:49.168Z,101191.03
2022-10-05T07:01:00.061Z,101199.78
2022-10-05T07:06:12.069Z,101205.13
2022-10-05T07:11:29.951Z,101208.09
2022-10-05T07:16:46.137Z,101209.84
2022-10-05T07:21:55.510Z,101208.50
2022-10-05T07:27:08.660Z,101210.22
2022-10-05T07:32:28.436Z,101209.38
2022-10-05T07:37:42.668Z,101212.28
2022-10-05T07:43:01.723Z,101211.47
2022-10-05T07:48:15.795Z,101215.91
2022-10-05T07:53:23.167Z,101221.44
2022-10-05T07:58:29.527Z,101214.59
2022-10-05T08:03:45.698Z,101212.06
2022-10-05T08:08:53.649Z,101209.72
2022-10-05T08:14:05.211Z,101225.63
2022-10-05T08:19:19.317Z,101217.91
2022-10-05T08:24:39.736Z,101222.19
2022-10-05T08:29:56.519Z,101218.25
2022-10-05T08:35:21.313Z,101224.31
2022-10-05T08:40:57.879Z,101216.44
2022-10-05T08:46:22.225Z,101222.03
2022-10-05T08:51:54.432Z,101227.41
2022-10-05T08:57:19.727Z,101231.84
2022-10-05T09:02:32.653Z,101234.44
2022-10-05T09:08:08.443Z,101232.03
2022-10-05T09:13:30.067Z,101229.69
2022-10-05T09:18:52.929Z,101226.44
2022-10-05T09:24:10.251Z,101231.75
2022-10-05T09:29:39.365Z,101237.88
2022-10-05T09:35:00.213Z,101227.50
2022-10-05T09:40:35.627Z,101227.56
2022-10-05T09:46:04.850Z,101226.84
2022-10-05T09:51:49.992Z,101231.34
2022-10-05T09:57:21.122Z,101228.81
2022-10-05T10:03:00.211Z,101231.56
2022-10-05T10:08:20.112Z,101235.91
2022-10-05T10:13:43.860Z,101221.94
2022-10-05T10:19:09.532Z,101224.81
2022-10-05T10:24:28.547Z,101226.75
2022-10-05T10:29:58.188Z,101222.47
2022-10-05T10:35:16.765Z,101213.97
2022-10-05T10:40:37.593Z,101217.47
2022-10-05T10:45:53.511Z,101215.78
2022-10-05T10:51:18.174Z,101216.69
2022-10-05T10:56:44.568Z,101209.81
2022-10-05T11:02:05.029Z,101206.31
2022-10-05T11:07:36.050Z,101206.19
2022-10-05T11:13:17.714Z,101205.41
2022-10-05T11:18:36.571Z,101204.81
2022-10-05T11:24:10.041Z,101202.16
2022-10-05T11:29:53.179Z,101203.97
2022-10-05T11:35:26.376Z,101199.75
2022-10-05T11:40:59.215Z,101197.09
2022-10-05T11:46:11.391Z,101202.47
2022-10-05T11:51:31.258Z,101212.28
2022-10-05T11:56:39.864Z,101207.00
2022-10-05T12:01:53.462Z,101203.56
2022-10-05T12:07:08.352Z,101209.03
2022-10-05T12:12:21.244Z,101212.63
2022-10-05T12:17:35.400Z,101210.16
2022-10-05T12:22:42.340Z,101218.00
2022-10-05T12:27:48.895Z,101221.72
2022-10-05T12:33:05.606Z,101225.22
2022-10-05T12:38:18.103Z,101236.63
2022-10-05T12:43:29.476Z,101237.50
2022-10-05T12:48:57.164Z,101237.47
2022-10-05T12:54:08.706Z,101244.56
2022-10-05T12:59:22.125Z,101252.47
2022-10-05T13:04:40.134Z,101261.16
2022-10-05T13:09:54.077Z,101252.44
2022-10-05T13:15:05.714Z,101251.75
2022-10-05T13:20:21.529Z,101251.88
2022-10-05T13:25:30.959Z,101259.09
2022-10-05T13:30:35.027Z,101265.19
2022-10-05T13:35:46.278Z,101273.06
2022-10-05T13:41:00.638Z,101275.66
2022-10-05T13:46:12.509Z,101280.75
2022-10-05T13:51:22.998Z,101284.25
2022-10-05T13:56:31.351Z,101288.91
2022-10-05T14:01:42.707Z,101295.97
2022-10-05T14:06:48.919Z,101295.06
2022-10-05T14:11:55.073Z,101296.00
2022-10-05T14:17:00.195Z,101306.50
2022-10-05T14:22:14.174Z,101306.50
2022-10-05T14:27:25.985Z,101305.44
2022-10-05T14:32:33.893Z,101311.53
2022-10-05T14:37:51.164Z,101317.28
2022-10-05T14:42:55.457Z,101329.34
2022-10-05T14:48:10.746Z,101325.56
2022-10-05T14:53:18.832Z,101332.84
2022-10-05T14:58:39.186Z,101330.22
2022-10-05T15:03:51.815Z,101344.25
2022-10-05T15:09:19.387Z,101339.16
2022-10-05T15:14:26.169Z,101357.78
2022-10-05T15:19:42.737Z,101356.59
2022-10-05T15:25:01.157Z,101353.34
2022-10-05T15:30:10.842Z,101357.19
2022-10-05T15:35:39.159Z,101362.38
2022-10-05T15:40:48.145Z,101368.00
2022-10-05T15:46:00.909Z,101382.38
2022-10-05T15:51:14.018Z,101393.94
2022-10-05T15:56:27.468Z,101392.28
2022-10-05T16:01:47.245Z,101400.00
2022-10-05T16:06:57.700Z,101397.84
2022-10-05T16:12:14.919Z,101410.84
2022-10-05T16:17:44.895Z,101422.56
2022-10-05T16:22:55.486Z,101427.28
2022-10-05T16:28:13.902Z,101420.72
2022-10-05T16:33:24.556Z,101430.66
2022-10-05T16:38:36.524Z,101426.63
2022-10-05T16:43:49.175Z,101427.38
2022-10-05T16:49:03.799Z,101428.94
2022-10-05T16:54:17.406Z,101430.41
2022-10-05T16:59:55.915Z,101434.06
2022-10-05T17:05:13.534Z,101431.34
2022-10-05T17:10:42.581Z,101431.06
2022-10-05T17:16:00.839Z,101433.50
2022-10-05T17:21:12.169Z,101428.63
2022-10-05T17:26:53.211Z,101427.03
2022-10-05T17:32:28.394Z,101424.47
2022-10-05T17:37:39.379Z,101423.50
2022-10-05T17:42:47.922Z,101421.22
2022-10-05T17:47:58.645Z,101420.22
2022-10-05T17:53:22.180Z,101406.06
2022-10-05T17:59:01.211Z,101405.25
2022-10-05T18:04:26.967Z,101398.69
2022-10-05T18:09:51.356Z,101401.53
2022-10-05T18:15:03.269Z,101393.25
2022-10-05T18:20:18.436Z,101401.97
2022-10-05T18:25:30.519Z,101405.81
2022-10-05T18:30:44.388Z,101396.88
2022-10-05T18:36:01.211Z,101398.84
2022-10-05T18:41:14.381Z,101386.91
2022-10-05T18:46:29.320Z,101382.97
2022-10-05T18:51:40.626Z,101377.06
2022-10-05T18:56:50.384Z,101374.63
2022-10-05T19:02:12.132Z,101371.63
2022-10-05T19:07:27.569Z,101369.31
2022-10-05T19:12:40.589Z,101357.53
2022-10-05T19:18:13.898Z,101351.41
2022-10-05T19:23:42.402Z,101346.88
2022-10-05T19:29:01.882Z,101338.78
2022-10-05T19:34:17.272Z,101331.88
2022-10-05T19:39:35.997Z,101327.44
2022-10-05T19:44:56.905Z,101321.53
2022-10-05T19:50:03.182Z,101318.25
2022-10-05T19:55:16.148Z,101317.50
2022-10-05T20:00:26.906Z,101310.56
2022-10-05T20:05:30.748Z,101301.41
2022-10-05T20:10:35.026Z,101300.19
2022-10-05T20:15:40.677Z,101285.78
2022-10-05T20:20:47.153Z,101274.56
2022-10-05T20:25:53.810Z,101276.97
2022-10-05T20:31:01.059Z,101268.91
2022-10-05T20:36:05.111Z,101260.06
2022-10-05T20:41:08.918Z,101252.16
2022-10-05T20:46:14.386Z,101250.28
2022-10-05T20:51:18.211Z,101237.56
2022-10-05T20:56:21.944Z,101238.63
2022-10-05T21:01:27.699Z,101228.84
2022-10-05T21:06:31.562Z,101227.38
2022-10-05T21:11:35.324Z,101223.13
2022-10-05T21:16:41.395Z,101219.69
2022-10-05T21:21:48.410Z,101201.22
2022-10-05T21:26:52.302Z,101204.28
2022-10-05T21:31:57.723Z,101199.03
2022-10-05T21:37:01.375Z,101188.94
2022-10-05T21:42:05.359Z,101186.03
2022-10-05T21:47:12.621Z,101181.03
2022-10-05T21:52:16.272Z,101161.09
2022-10-05T21:57:19.856Z,101159.72
2022-10-05T22:02:25.125Z,101154.59
2022-10-05T22:07:29.881Z,101146.06
2022-10-05T22:12:33.187Z,101140.25
2022-10-05T22:17:38.479Z,101135.84
2022-10-05T22:22:46.763Z,101143.13
2022-10-05T22:27:50.962Z,101126.97
2022-10-05T22:32:56.312Z,101130.47
2022-10-05T22:37:59.981Z,101127.47
2022-10-05T22:43:03.566Z,101120.00
2022-10-05T22:48:08.749Z,101115.63
2022-10-05T22:53:12.363Z,101118.28
2022-10-05T22:58:15.907Z,101108.16
2022-10-05T23:03:21.223Z,101106.06
2022-10-05T23:08:25.281Z,101118.28
2022-10-05T23:13:29.276Z,101108.31
2022-10-05T23:18:34.589Z,101106.63
2022-10-05T23:23:39.353Z,101107.25
2022-10-05T23:28:43.811Z,101108.88
2022-10-05T23:33:49.053Z,101096.53
2022-10-05T23:38:53.206Z,101107.00
2022-10-05T23:43:56.721Z,101093.84
2022-10-05T23:49:01.883Z,101103.81
2022-10-05T23:54:05.617Z,101095.81
2022-10-05T23:59:09.161Z,101101.06
